createdAt,value
2023-02-24T10:54:53.015Z,99748.81
2023-02-24T10:57:38.311Z,99751.09
2023-02-24T11:00:51.799Z,99740.97
2023-02-24T11:03:35.769Z,99728.84
2023-02-24T11:06:30.361Z,99715.75
2023-02-24T11:09:19.113Z,99717.19
2023-02-24T11:12:06.857Z,99698.91
2023-02-24T11:14:58.225Z,99706.69
2023-02-24T11:17:27.779Z,99696.22
2023-02-24T11:20:01.227Z,99676.06
2023-02-24T11:22:33.949Z,99670.84
2023-02-24T11:25:06.882Z,99672.19
2023-02-24T11:27:36.183Z,99666.03
2023-02-24T11:30:16.903Z,99667.81
2023-02-24T11:33:06.508Z,99652.06
2023-02-24T11:35:40.822Z,99657.31
2023-02-24T11:38:18.675Z,99636.50
2023-02-24T11:40:53.336Z,99643.53
2023-02-24T11:46:35.305Z,99624.63
2023-02-24T11:49:08.457Z,99625.44
2023-02-24T11:51:38.625Z,99627.22
2023-02-24T11:54:11.782Z,99619.44
2023-02-24T11:56:43.996Z,99617.75
2023-02-24T11:59:17.744Z,99609.00
2023-02-24T12:01:53.403Z,99608.19
2023-02-24T12:04:27.304Z,99603.78
2023-02-24T12:07:00.798Z,99591.56
2023-02-24T12:09:34.633Z,99591.50
2023-02-24T12:12:13.702Z,99582.75
2023-02-24T12:14:48.715Z,99582.66
2023-02-24T12:17:25.323Z,99580.91
2023-02-24T12:19:59.509Z,99547.97
2023-02-24T12:22:35.522Z,99566.91
2023-02-24T12:25:05.039Z,99566.94
2023-02-24T12:27:48.221Z,99566.91
2023-02-24T12:30:48.581Z,99567.06
2023-02-24T12:33:28.941Z,99523.19
2023-02-24T12:36:06.120Z,99525.66
2023-02-24T12:38:49.602Z,99558.03
2023-02-24T12:41:36.994Z,99556.28
2023-02-24T12:44:17.277Z,99556.53
2023-02-24T12:46:47.962Z,99549.41
2023-02-24T12:49:34.455Z,99563.78
2023-02-24T12:52:12.959Z,99540.28
2023-02-24T12:54:47.741Z,99535.28
2023-02-24T12:57:26.720Z,99530.13
2023-02-24T12:59:57.988Z,99534.31
2023-02-24T13:02:40.410Z,99499.94
2023-02-24T13:05:19.863Z,99520.34
2023-02-24T13:08:04.168Z,99523.16
2023-02-24T13:10:40.939Z,99518.81
2023-02-24T13:13:15.544Z,99512.69
2023-02-24T13:15:51.977Z,99506.53
2023-02-24T13:18:31.668Z,99498.59
2023-02-24T13:21:07.528Z,99489.78
2023-02-24T13:23:36.152Z,99486.97
2023-02-24T13:26:04.808Z,99480.84
2023-02-24T13:28:36.306Z,99481.56
2023-02-24T13:31:06.809Z,99478.94
2023-02-24T13:33:36.998Z,99481.47
2023-02-24T13:36:14.899Z,99466.44
2023-02-24T13:38:44.473Z,99463.78
2023-02-24T13:41:24.905Z,99465.31
2023-02-24T13:43:59.526Z,99452.19
2023-02-24T13:46:31.105Z,99447.81
2023-02-24T13:49:07.402Z,99449.25
2023-02-24T13:51:55.187Z,99442.19
2023-02-24T13:54:56.619Z,99444.66
2023-02-24T13:57:48.793Z,99447.13
2023-02-24T14:00:23.221Z,99434.81
2023-02-24T14:02:53.311Z,99431.25
2023-02-24T14:05:26.436Z,99432.00
2023-02-24T14:07:56.698Z,99420.69
2023-02-24T14:10:26.986Z,99423.84
2023-02-24T14:13:04.070Z,99418.81
2023-02-24T14:15:32.716Z,99412.28
2023-02-24T14:18:03.234Z,99408.00
2023-02-24T14:20:33.649Z,99400.03
2023-02-24T14:23:03.929Z,99402.63
2023-02-24T14:25:36.833Z,99393.69
2023-02-24T14:28:05.364Z,99380.53
2023-02-24T14:30:36.462Z,99383.97
2023-02-24T14:33:07.031Z,99384.72
2023-02-24T14:35:37.984Z,99380.50
2023-02-24T14:38:07.431Z,99377.66
2023-02-24T14:40:35.421Z,99388.16
2023-02-24T14:43:03.813Z,99387.31
2023-02-24T14:45:31.795Z,99371.59
2023-02-24T14:47:59.771Z,99369.78
2023-02-24T14:50:31.266Z,99355.09
2023-02-24T14:53:03.709Z,99360.81
2023-02-24T14:55:38.099Z,99366.81
2023-02-24T14:58:12.508Z,99357.19
2023-02-24T15:00:47.851Z,99338.59
2023-02-24T15:03:21.053Z,99344.63
2023-02-24T15:05:53.711Z,99334.91
2023-02-24T15:08:32.555Z,99341.84
2023-02-24T15:11:05.900Z,99333.75
2023-02-24T15:13:39.599Z,99324.94
2023-02-24T15:16:13.564Z,99332.03
2023-02-24T15:18:42.317Z,99328.13
2023-02-24T15:21:22.330Z,99327.16
2023-02-24T15:23:58.674Z,99320.44
2023-02-24T15:26:30.977Z,99317.88
2023-02-24T15:29:02.483Z,99309.34
2023-02-24T15:31:30.868Z,99308.19
2023-02-24T15:34:01.999Z,99299.50
2023-02-24T15:36:33.834Z,99279.69
2023-02-24T15:39:04.880Z,99298.31
2023-02-24T15:41:41.823Z,99285.16
2023-02-24T15:44:26.208Z,99248.91
2023-02-24T15:46:54.746Z,99262.41
2023-02-24T15:49:22.760Z,99281.19
2023-02-24T15:51:52.494Z,99267.66
2023-02-24T15:54:24.625Z,99278.81
2023-02-24T15:56:54.001Z,99243.38
2023-02-24T15:59:22.479Z,99263.50
2023-02-24T16:01:52.119Z,99273.88
2023-02-24T16:04:21.708Z,99263.59
2023-02-24T16:06:55.227Z,99255.97
2023-02-24T16:09:32.018Z,99259.31
2023-02-24T16:12:04.146Z,99255.00
2023-02-24T16:14:32.972Z,99266.31
2023-02-24T16:17:03.487Z,99255.84
2023-02-24T16:19:31.381Z,99251.59
2023-02-24T16:22:02.193Z,99253.34
2023-02-24T16:24:30.113Z,99246.22
2023-02-24T16:26:58.098Z,99232.22
2023-02-24T16:29:28.115Z,99242.91
2023-02-24T16:31:56.295Z,99233.31
2023-02-24T16:34:24.396Z,99239.13
2023-02-24T16:36:52.300Z,99232.81
2023-02-24T16:39:20.169Z,99228.44
2023-02-24T16:41:48.073Z,99225.72
2023-02-24T16:44:15.982Z,99223.47
2023-02-24T16:46:46.300Z,99218.06
2023-02-24T16:49:19.651Z,99204.41
2023-02-24T16:51:47.690Z,99212.91
2023-02-24T16:54:15.668Z,99215.44
2023-02-24T16:56:46.688Z,99212.75
2023-02-24T16:59:14.787Z,99214.47
2023-02-24T17:01:44.760Z,99219.50
2023-02-24T17:04:14.233Z,99219.56
2023-02-24T17:06:42.457Z,99221.34
2023-02-24T17:09:10.392Z,99218.47
2023-02-24T17:11:38.372Z,99207.16
2023-02-24T17:14:06.287Z,99207.16
2023-02-24T17:16:34.230Z,99219.97
2023-02-24T17:19:03.663Z,99213.91
2023-02-24T17:21:31.550Z,99207.69
2023-02-24T17:23:59.560Z,99208.31
2023-02-24T17:26:27.518Z,99201.34
2023-02-24T17:28:55.517Z,99210.09
2023-02-24T17:31:24.001Z,99205.69
2023-02-24T17:33:52.030Z,99215.16
2023-02-24T17:36:21.643Z,99214.25
2023-02-24T17:38:49.814Z,99204.75
2023-02-24T17:41:17.770Z,99210.84
2023-02-24T17:43:45.688Z,99215.38
2023-02-24T17:46:13.659Z,99207.31
2023-02-24T17:48:41.669Z,99221.31
2023-02-24T17:51:14.261Z,99217.72
2023-02-24T17:53:43.667Z,99225.66
2023-02-24T17:56:12.330Z,99217.84
2023-02-24T17:58:41.994Z,99229.38
2023-02-24T18:01:09.911Z,99222.47
2023-02-24T18:03:38.528Z,99228.72
2023-02-24T18:06:09.913Z,99227.84
2023-02-24T18:08:39.678Z,99234.78
2023-02-24T18:11:12.349Z,99235.78
2023-02-24T18:13:40.335Z,99220.94
2023-02-24T18:16:10.854Z,99220.25
2023-02-24T18:18:38.923Z,99222.69
2023-02-24T18:21:08.492Z,99224.41
2023-02-24T18:23:38.150Z,99225.28
2023-02-24T18:26:08.308Z,99233.09
2023-02-24T18:28:37.828Z,99224.19
2023-02-24T18:31:12.270Z,99225.94
2023-02-24T18:33:40.476Z,99226.00
2023-02-24T18:36:09.497Z,99230.31
2023-02-24T18:38:37.567Z,99240.75
2023-02-24T18:41:07.350Z,99237.09
2023-02-24T18:43:37.349Z,99246.69
2023-02-24T18:46:07.549Z,99246.47
2023-02-24T18:48:35.956Z,99234.47
2023-02-24T18:51:04.718Z,99245.72
2023-02-24T18:53:36.742Z,99220.88
2023-02-24T18:56:06.681Z,99239.91
2023-02-24T18:58:37.009Z,99243.94
2023-02-24T19:01:13.473Z,99238.69
2023-02-24T19:03:42.177Z,99239.50
2023-02-24T19:06:10.313Z,99250.91
2023-02-24T19:08:38.636Z,99256.13
2023-02-24T19:11:11.292Z,99244.78
2023-02-24T19:13:39.785Z,99246.69
2023-02-24T19:16:08.696Z,99244.75
2023-02-24T19:18:38.048Z,99238.69
2023-02-24T19:21:07.227Z,99239.69
2023-02-24T19:23:35.375Z,99237.28
2023-02-24T19:26:03.320Z,99235.75
2023-02-24T19:28:31.886Z,99241.38
2023-02-24T19:30:59.828Z,99241.63
2023-02-24T19:33:27.782Z,99244.63
2023-02-24T19:36:00.568Z,99181.50
2023-02-24T19:38:28.447Z,99253.25
2023-02-24T19:40:59.295Z,99242.22
2023-02-24T19:43:27.372Z,99239.44
2023-02-24T19:45:55.326Z,99249.03
2023-02-24T19:48:23.318Z,99246.19
2023-02-24T19:50:51.332Z,99252.13
2023-02-24T19:53:20.653Z,99214.13
2023-02-24T19:55:50.089Z,99231.22
2023-02-24T19:58:18.377Z,99242.66
2023-02-24T20:00:47.988Z,99244.94
2023-02-24T20:03:16.053Z,99244.34
2023-02-24T20:05:44.036Z,99205.81
2023-02-24T20:08:11.939Z,99253.63
2023-02-24T20:10:41.242Z,99250.56
2023-02-24T20:13:09.227Z,99232.50
2023-02-24T20:15:37.479Z,99232.19
2023-02-24T20:18:08.683Z,99246.53
2023-02-24T20:20:37.238Z,99249.34
2023-02-24T20:23:05.708Z,99262.38
2023-02-24T20:25:33.604Z,99254.38
2023-02-24T20:28:03.774Z,99238.41
2023-02-24T20:30:31.698Z,99250.41
2023-02-24T20:32:59.697Z,99254.00
2023-02-24T20:35:28.357Z,99253.06
2023-02-24T20:37:56.284Z,99264.66
2023-02-24T20:40:24.405Z,99261.09
2023-02-24T20:42:52.311Z,99256.69
2023-02-24T20:45:21.556Z,99250.63
2023-02-24T20:47:49.458Z,99259.31
2023-02-24T20:50:17.465Z,99260.06
2023-02-24T20:52:45.399Z,99270.47
2023-02-24T20:55:13.357Z,99253.72
2023-02-24T20:57:41.377Z,99257.16
2023-02-24T21:00:10.617Z,99257.63
2023-02-24T21:02:41.237Z,99256.03
2023-02-24T21:05:10.004Z,99253.50
2023-02-24T21:07:38.166Z,99256.13
2023-02-24T21:10:07.754Z,99264.13
2023-02-24T21:12:35.893Z,99265.00
2023-02-24T21:15:04.214Z,99267.63
2023-02-24T21:17:34.275Z,99252.72
2023-02-24T21:20:03.552Z,99261.28
2023-02-24T21:22:31.938Z,99262.19
2023-02-24T21:25:00.408Z,99250.81
2023-02-24T21:27:28.293Z,99251.81
2023-02-24T21:29:56.182Z,99246.66
2023-02-24T21:32:24.140Z,99254.56
2023-02-24T21:34:52.158Z,99248.47
2023-02-24T21:37:21.429Z,99205.72
2023-02-24T21:39:49.695Z,99256.31
2023-02-24T21:42:17.606Z,99257.38
2023-02-24T21:44:45.493Z,99252.13
2023-02-24T21:47:13.417Z,99250.31
2023-02-24T21:49:41.302Z,99247.56
2023-02-24T21:52:11.391Z,99267.78
2023-02-24T21:54:42.289Z,99269.66
2023-02-24T21:57:10.241Z,99270.50
2023-02-24T21:59:38.129Z,99266.16
2023-02-24T22:02:05.999Z,99267.97
2023-02-24T22:04:34.429Z,99276.84
2023-02-24T22:07:02.314Z,99259.53
2023-02-24T22:09:30.771Z,99270.06
2023-02-24T22:12:00.038Z,99264.09
2023-02-24T22:14:28.022Z,99263.47
2023-02-24T22:16:55.955Z,99272.34
2023-02-24T22:19:24.070Z,99275.91
2023-02-24T22:21:52.079Z,99276.00
2023-02-24T22:24:20.178Z,99256.28
2023-02-24T22:26:48.288Z,99277.50
2023-02-24T22:29:17.646Z,99272.16
2023-02-24T22:31:49.453Z,99273.09
2023-02-24T22:34:17.693Z,99283.41
2023-02-24T22:36:45.730Z,99280.97
2023-02-24T22:39:16.585Z,99273.78
2023-02-24T22:41:45.435Z,99281.66
2023-02-24T22:44:14.295Z,99263.53
2023-02-24T22:46:43.598Z,99295.63
2023-02-24T22:49:11.953Z,99296.53
2023-02-24T22:51:39.930Z,99290.22
2023-02-24T22:54:07.945Z,99285.03
2023-02-24T22:56:35.876Z,99273.66
2023-02-24T22:59:03.774Z,99278.13
2023-02-24T23:01:33.803Z,99277.22
2023-02-24T23:04:04.959Z,99277.09
2023-02-24T23:06:33.155Z,99267.63
2023-02-24T23:09:02.395Z,99273.88
2023-02-24T23:11:31.851Z,99267.09
2023-02-24T23:14:02.318Z,99280.63
2023-02-24T23:16:32.261Z,99270.06
2023-02-24T23:19:01.956Z,99270.34
2023-02-24T23:21:34.730Z,99279.72
2023-02-24T23:24:03.972Z,99287.50
2023-02-24T23:26:33.371Z,99283.03
2023-02-24T23:29:01.719Z,99281.19
2023-02-24T23:31:30.269Z,99266.50
2023-02-24T23:33:58.604Z,99285.44
2023-02-24T23:36:27.118Z,99281.97
2023-02-24T23:38:57.544Z,99280.31
2023-02-24T23:41:25.449Z,99284.66
2023-02-24T23:43:53.362Z,99272.59
2023-02-24T23:46:21.675Z,99263.38
2023-02-24T23:48:52.420Z,99302.06
2023-02-24T23:51:21.157Z,99290.63
2023-02-24T23:53:49.476Z,99304.66
2023-02-24T23:56:20.697Z,99292.34
2023-02-24T23:58:52.215Z,99309.03
